createdAt,value
2019-02-16T00:01:19.969Z,102420.39
2019-02-16T00:03:49.152Z,102420.39
2019-02-16T00:06:18.488Z,102414.62
2019-02-16T00:08:47.660Z,102421.38
2019-02-16T00:11:16.887Z,102426.30
2019-02-16T00:13:46.093Z,102420.13
2019-02-16T00:16:33.577Z,102426.38
2019-02-16T00:19:02.786Z,102431.31
2019-02-16T00:21:31.983Z,102424.41
2019-02-16T00:24:01.171Z,102421.16
2019-02-16T00:26:30.372Z,102417.75
2019-02-16T00:28:59.572Z,102420.02
2019-02-16T00:31:28.756Z,102427.20
2019-02-16T00:33:57.968Z,102424.12
2019-02-16T00:36:27.302Z,102423.56
2019-02-16T00:38:56.515Z,102418.66
2019-02-16T00:41:25.732Z,102416.91
2019-02-16T00:43:54.945Z,102417.61
2019-02-16T00:46:24.131Z,102410.13
2019-02-16T00:48:53.316Z,102410.13
2019-02-16T00:51:22.529Z,102407.50
2019-02-16T00:53:51.713Z,102398.90
2019-02-16T00:56:20.996Z,102403.61
2019-02-16T00:58:50.258Z,102403.61
2019-02-16T01:01:19.454Z,102400.50
2019-02-16T01:03:48.658Z,102389.84
2019-02-16T01:06:17.854Z,102392.00
2019-02-16T01:08:47.026Z,102394.83
2019-02-16T01:11:16.224Z,102385.98
2019-02-16T01:13:45.444Z,102386.53
2019-02-16T01:16:14.626Z,102381.06
2019-02-16T01:18:43.826Z,102377.92
2019-02-16T01:21:31.122Z,102384.91
2019-02-16T01:24:18.449Z,102384.91
2019-02-16T01:26:47.620Z,102378.41
2019-02-16T01:29:16.798Z,102383.36
2019-02-16T01:31:46.031Z,102376.36
2019-02-16T01:34:15.243Z,102381.85
2019-02-16T01:36:44.545Z,102373.47
2019-02-16T01:39:13.763Z,102368.39
2019-02-16T01:41:43.039Z,102367.66
2019-02-16T01:44:12.310Z,102355.69
2019-02-16T01:46:41.527Z,102349.84
2019-02-16T01:49:10.711Z,102344.61
2019-02-16T01:51:39.919Z,102341.44
2019-02-16T01:54:09.152Z,102332.17
2019-02-16T01:56:38.364Z,102328.34
2019-02-16T01:59:07.562Z,102329.23
2019-02-16T02:01:36.970Z,102329.02
2019-02-16T02:04:06.169Z,102339.27
2019-02-16T02:06:35.361Z,102338.44
2019-02-16T02:09:05.659Z,102338.09
2019-02-16T02:11:34.953Z,102330.34
2019-02-16T02:14:04.136Z,102335.23
2019-02-16T02:16:33.355Z,102329.39
2019-02-16T02:19:02.484Z,102327.52
2019-02-16T02:21:40.609Z,102320.11
2019-02-16T02:24:02.670Z,102313.73
2019-02-16T02:26:31.860Z,102312.41
2019-02-16T02:29:01.090Z,102305.73
2019-02-16T02:31:30.323Z,102294.39
2019-02-16T02:33:59.527Z,102302.27
2019-02-16T02:36:28.748Z,102301.45
2019-02-16T02:38:58.023Z,102299.83
2019-02-16T02:41:27.271Z,102301.58
2019-02-16T02:43:56.476Z,102298.71
2019-02-16T02:46:25.725Z,102298.59
2019-02-16T02:48:54.959Z,102299.28
2019-02-16T02:51:24.202Z,102293.27
2019-02-16T02:53:53.496Z,102298.63
2019-02-16T02:56:22.795Z,102303.86
2019-02-16T02:58:52.019Z,102294.22
2019-02-16T03:01:21.223Z,102293.78
2019-02-16T03:03:50.437Z,102285.52
2019-02-16T03:06:19.655Z,102288.30
2019-02-16T03:08:48.857Z,102288.23
2019-02-16T03:11:18.073Z,102294.73
2019-02-16T03:13:47.304Z,102290.33
2019-02-16T03:16:16.556Z,102286.44
2019-02-16T03:18:45.757Z,102289.15
2019-02-16T03:21:14.991Z,102296.31
2019-02-16T03:23:44.186Z,102297.92
2019-02-16T03:26:35.115Z,102302.64
2019-02-16T03:29:15.649Z,102296.87
2019-02-16T03:32:14.779Z,102293.01
2019-02-16T03:34:49.657Z,102292.40
2019-02-16T03:37:41.330Z,102292.88
2019-02-16T03:40:12.372Z,102287.91
2019-02-16T03:42:41.570Z,102286.55
2019-02-16T03:45:10.969Z,102291.50
2019-02-16T03:47:40.172Z,102291.05
2019-02-16T03:50:09.539Z,102296.16
2019-02-16T03:52:38.769Z,102300.72
2019-02-16T03:55:08.042Z,102306.89
2019-02-16T03:57:37.276Z,102306.02
2019-02-16T04:00:09.268Z,102308.72
2019-02-16T04:02:38.478Z,102306.03
2019-02-16T04:05:09.093Z,102310.19
2019-02-16T04:07:38.323Z,102316.85
2019-02-16T04:10:07.799Z,102308.87
2019-02-16T04:12:37.013Z,102308.14
2019-02-16T04:15:06.889Z,102304.59
2019-02-16T04:17:36.161Z,102311.18
2019-02-16T04:20:07.085Z,102312.22
2019-02-16T04:22:36.251Z,102311.27
2019-02-16T04:25:05.657Z,102314.41
2019-02-16T04:27:52.767Z,102311.52
2019-02-16T04:30:21.973Z,102304.33
2019-02-16T04:32:51.158Z,102312.67
2019-02-16T04:35:20.337Z,102313.15
2019-02-16T04:37:49.553Z,102316.88
2019-02-16T04:40:18.759Z,102314.71
2019-02-16T04:42:47.943Z,102315.20
2019-02-16T04:45:17.131Z,102311.67
2019-02-16T04:47:46.323Z,102309.39
2019-02-16T04:50:15.500Z,102315.17
2019-02-16T04:52:44.748Z,102323.57
2019-02-16T04:55:13.881Z,102320.08
2019-02-16T04:57:43.054Z,102316.63
2019-02-16T05:00:12.237Z,102314.40
2019-02-16T05:02:41.422Z,102307.80
2019-02-16T05:05:10.713Z,102306.89
2019-02-16T05:07:39.904Z,102309.54
2019-02-16T05:10:10.755Z,102316.30
2019-02-16T05:12:39.959Z,102318.98
2019-02-16T05:15:09.925Z,102322.13
2019-02-16T05:17:39.115Z,102317.30
2019-02-16T05:20:08.779Z,102320.06
2019-02-16T05:22:44.502Z,102313.38
2019-02-16T05:25:08.884Z,102309.86
2019-02-16T05:27:38.126Z,102312.09
2019-02-16T05:30:08.900Z,102317.75
2019-02-16T05:32:38.098Z,102311.56
2019-02-16T05:35:07.313Z,102316.59
2019-02-16T05:37:36.495Z,102307.11
2019-02-16T05:40:08.211Z,102307.19
2019-02-16T05:42:37.412Z,102305.86
2019-02-16T05:45:07.033Z,102312.59
2019-02-16T05:47:36.207Z,102311.67
2019-02-16T05:50:05.656Z,102310.81
2019-02-16T05:52:34.839Z,102315.59
2019-02-16T05:55:04.430Z,102314.77
2019-02-16T05:57:33.630Z,102308.66
2019-02-16T06:00:02.873Z,102298.47
2019-02-16T06:02:32.014Z,102299.83
2019-02-16T06:05:01.218Z,102311.79
2019-02-16T06:07:30.387Z,102302.98
2019-02-16T06:09:59.578Z,102306.52
2019-02-16T06:12:28.982Z,102297.99
2019-02-16T06:14:58.152Z,102297.56
2019-02-16T06:17:27.331Z,102302.39
2019-02-16T06:19:56.518Z,102299.33
2019-02-16T06:22:25.710Z,102304.80
2019-02-16T06:24:54.898Z,102304.34
2019-02-16T06:27:24.142Z,102307.00
2019-02-16T06:29:53.318Z,102324.03
2019-02-16T06:32:22.513Z,102316.88
2019-02-16T06:34:53.351Z,102320.44
2019-02-16T06:37:23.391Z,102324.41
2019-02-16T06:39:52.745Z,102323.05
2019-02-16T06:42:21.997Z,102321.37
2019-02-16T06:44:51.193Z,102326.59
2019-02-16T06:47:20.370Z,102341.13
2019-02-16T06:49:49.553Z,102342.01
2019-02-16T06:52:18.771Z,102345.22
2019-02-16T06:54:47.964Z,102341.64
2019-02-16T06:57:18.776Z,102339.41
2019-02-16T06:59:47.987Z,102347.38
2019-02-16T07:02:17.337Z,102346.11
2019-02-16T07:04:46.579Z,102342.59
2019-02-16T07:07:15.789Z,102352.81
2019-02-16T07:09:44.982Z,102347.90
2019-02-16T07:12:14.183Z,102350.48
2019-02-16T07:14:43.398Z,102350.81
2019-02-16T07:17:23.403Z,102345.95
2019-02-16T07:19:53.520Z,102352.19
2019-02-16T07:22:22.759Z,102356.75
2019-02-16T07:24:51.995Z,102354.94
2019-02-16T07:27:21.133Z,102354.34
2019-02-16T07:29:50.312Z,102357.26
2019-02-16T07:32:19.516Z,102356.64
2019-02-16T07:34:48.780Z,102362.98
2019-02-16T07:37:17.976Z,102371.85
2019-02-16T07:39:47.229Z,102370.61
2019-02-16T07:42:16.414Z,102373.52
2019-02-16T07:44:47.413Z,102364.86
2019-02-16T07:47:18.247Z,102365.00
2019-02-16T07:49:51.497Z,102367.89
2019-02-16T07:52:39.144Z,102365.21
2019-02-16T07:55:09.975Z,102356.27
2019-02-16T07:57:52.848Z,102358.84
2019-02-16T08:00:26.404Z,102364.89
2019-02-16T08:03:02.972Z,102373.63
2019-02-16T08:05:39.200Z,102379.14
2019-02-16T08:08:10.186Z,102378.20
2019-02-16T08:10:46.652Z,102386.16
2019-02-16T08:13:17.561Z,102382.45
2019-02-16T08:15:51.130Z,102386.61
2019-02-16T08:18:27.969Z,102385.00
2019-02-16T08:21:07.640Z,102383.08
2019-02-16T08:23:54.842Z,102385.54
2019-02-16T08:26:37.608Z,102392.63
2019-02-16T08:29:08.451Z,102389.33
2019-02-16T08:31:39.279Z,102395.61
2019-02-16T08:34:18.963Z,102392.41
2019-02-16T08:36:52.236Z,102396.06
2019-02-16T08:39:28.558Z,102390.36
2019-02-16T08:41:59.411Z,102396.64
2019-02-16T08:44:32.814Z,102397.30
2019-02-16T08:47:03.654Z,102393.95
2019-02-16T08:49:37.019Z,102394.66
2019-02-16T08:52:16.368Z,102395.45
2019-02-16T08:54:49.763Z,102392.97
2019-02-16T08:57:33.848Z,102385.73
2019-02-16T09:00:13.988Z,102385.17
2019-02-16T09:03:00.935Z,102385.00
2019-02-16T09:05:37.960Z,102388.67
2019-02-16T09:08:08.810Z,102387.94
2019-02-16T09:10:42.582Z,102381.69
2019-02-16T09:13:13.430Z,102375.19
2019-02-16T09:15:49.949Z,102374.61
2019-02-16T09:18:23.427Z,102383.80
2019-02-16T09:21:00.173Z,102376.97
2019-02-16T09:23:36.873Z,102372.09
2019-02-16T09:26:24.462Z,102370.22
2019-02-16T09:29:07.331Z,102373.56
2019-02-16T09:31:41.051Z,102369.53
2019-02-16T09:34:11.898Z,102373.07
2019-02-16T09:36:54.768Z,102369.52
2019-02-16T09:39:34.402Z,102371.88
2019-02-16T09:42:23.168Z,102373.36
2019-02-16T09:44:54.023Z,102376.29
2019-02-16T09:47:30.776Z,102377.80
2019-02-16T09:50:02.941Z,102378.42
2019-02-16T09:52:36.350Z,102382.09
2019-02-16T09:55:08.092Z,102388.45
2019-02-16T09:57:38.906Z,102384.23
2019-02-16T10:00:26.915Z,102382.03
2019-02-16T10:03:06.435Z,102383.45
2019-02-16T10:05:53.547Z,102385.11
2019-02-16T10:08:36.506Z,102388.81
2019-02-16T10:11:22.670Z,102383.42
2019-02-16T10:13:53.498Z,102382.46
2019-02-16T10:16:24.363Z,102378.10
2019-02-16T10:19:04.053Z,102364.52
2019-02-16T10:21:47.009Z,102372.13
2019-02-16T10:24:33.941Z,102377.98
2019-02-16T10:27:13.832Z,102377.11
2019-02-16T10:29:50.531Z,102380.66
2019-02-16T10:32:37.260Z,102371.69
2019-02-16T10:35:14.144Z,102375.67
2019-02-16T10:37:44.975Z,102384.19
2019-02-16T10:40:27.988Z,102373.98
2019-02-16T10:42:58.822Z,102376.33
2019-02-16T10:45:46.227Z,102375.19
2019-02-16T10:48:19.593Z,102378.70
2019-02-16T10:50:56.227Z,102373.70
2019-02-16T10:53:29.818Z,102372.80
2019-02-16T10:56:15.788Z,102374.11
2019-02-16T10:59:04.803Z,102380.13
2019-02-16T11:01:35.652Z,102383.59
2019-02-16T11:04:06.573Z,102383.59
2019-02-16T11:06:55.555Z,102384.53
2019-02-16T11:09:41.507Z,102397.45
2019-02-16T11:12:21.192Z,102397.45
2019-02-16T11:14:57.757Z,102387.95
2019-02-16T11:17:31.412Z,102386.31
2019-02-16T11:20:02.227Z,102380.88
2019-02-16T11:22:49.078Z,102381.69
2019-02-16T11:25:31.901Z,102374.95
2019-02-16T11:28:05.316Z,102378.66
2019-02-16T11:30:38.756Z,102385.03
2019-02-16T11:33:15.308Z,102385.03
2019-02-16T11:35:48.723Z,102382.55
2019-02-16T11:38:25.848Z,102384.25
2019-02-16T11:41:18.586Z,102380.62
2019-02-16T11:43:45.224Z,102387.43
2019-02-16T11:46:25.012Z,102387.43
2019-02-16T11:48:58.383Z,102382.91
2019-02-16T11:51:44.506Z,102382.91
2019-02-16T11:54:15.351Z,102389.94
2019-02-16T11:56:46.185Z,102389.94
2019-02-16T11:59:33.346Z,102385.27
2019-02-16T12:02:04.163Z,102385.27
2019-02-16T12:04:37.681Z,102380.59
2019-02-16T12:07:08.591Z,102365.97
2019-02-16T12:09:39.407Z,102365.97
2019-02-16T12:12:22.204Z,102368.53
2019-02-16T12:14:53.045Z,102368.53
2019-02-16T12:17:26.567Z,102377.41
2019-02-16T12:20:03.271Z,102377.73
2019-02-16T12:22:43.167Z,102366.24
2019-02-16T12:25:19.945Z,102366.24
2019-02-16T12:28:07.114Z,102367.81
2019-02-16T12:30:54.303Z,102369.20
2019-02-16T12:33:41.436Z,102369.44
2019-02-16T12:36:28.409Z,102371.61
2019-02-16T12:39:15.542Z,102371.61
2019-02-16T12:41:55.289Z,102369.16
2019-02-16T12:44:28.671Z,102370.78
2019-02-16T12:47:02.354Z,102370.78
2019-02-16T12:49:41.811Z,102365.69
2019-02-16T12:52:30.575Z,102369.23
2019-02-16T12:55:14.417Z,102369.23
2019-02-16T12:57:39.833Z,102363.27
2019-02-16T13:00:15.303Z,102366.88
2019-02-16T13:02:48.831Z,102368.52
2019-02-16T13:05:25.585Z,102365.83
2019-02-16T13:08:02.243Z,102373.71
2019-02-16T13:10:33.084Z,102375.80
2019-02-16T13:13:20.014Z,102362.70
2019-02-16T13:15:56.553Z,102369.39
2019-02-16T13:18:42.571Z,102365.37
2019-02-16T13:21:19.198Z,102362.61
2019-02-16T13:23:59.041Z,102356.49
2019-02-16T13:26:38.757Z,102367.71
2019-02-16T13:29:12.412Z,102356.09
2019-02-16T13:31:58.169Z,102356.09
2019-02-16T13:34:29.027Z,102350.52
2019-02-16T13:37:08.462Z,102350.52
2019-02-16T13:39:39.316Z,102356.50
2019-02-16T13:42:10.775Z,102357.06
2019-02-16T13:44:47.493Z,102355.84
2019-02-16T13:47:18.319Z,102357.41
2019-02-16T13:49:51.621Z,102366.84
2019-02-16T13:52:22.445Z,102360.73
2019-02-16T13:54:55.769Z,102369.23
2019-02-16T13:57:38.845Z,102361.16
2019-02-16T14:00:10.417Z,102365.81
2019-02-16T14:02:44.041Z,102361.83
2019-02-16T14:05:26.674Z,102360.53
2019-02-16T14:08:12.611Z,102357.97
2019-02-16T14:10:52.281Z,102352.77
2019-02-16T14:13:23.115Z,102357.37
2019-02-16T14:15:53.937Z,102355.06
2019-02-16T14:18:23.135Z,102358.22
2019-02-16T14:20:52.353Z,102355.98
2019-02-16T14:23:21.545Z,102359.36
2019-02-16T14:25:50.744Z,102353.67
2019-02-16T14:28:19.932Z,102352.58
2019-02-16T14:31:07.143Z,102348.13
2019-02-16T14:33:54.510Z,102347.73
2019-02-16T14:36:23.720Z,102346.00
2019-02-16T14:38:54.553Z,102350.16
2019-02-16T14:41:23.791Z,102348.08
2019-02-16T14:43:52.955Z,102346.17
2019-02-16T14:46:22.154Z,102343.84
2019-02-16T14:48:51.346Z,102338.73
2019-02-16T14:51:20.548Z,102332.27
2019-02-16T14:53:49.726Z,102343.28
2019-02-16T14:56:18.937Z,102330.88
2019-02-16T14:58:48.114Z,102329.02
2019-02-16T15:01:17.296Z,102328.03
2019-02-16T15:03:46.523Z,102327.16
2019-02-16T15:06:15.718Z,102330.45
2019-02-16T15:08:44.882Z,102328.25
2019-02-16T15:11:14.093Z,102328.03
2019-02-16T15:13:45.016Z,102338.52
2019-02-16T15:16:14.154Z,102330.88
2019-02-16T15:18:43.352Z,102333.83
2019-02-16T15:21:12.548Z,102333.27
2019-02-16T15:23:41.744Z,102327.64
2019-02-16T15:26:10.959Z,102327.25
2019-02-16T15:28:41.078Z,102325.13
2019-02-16T15:31:10.281Z,102326.73
2019-02-16T15:33:39.377Z,102320.84
2019-02-16T15:36:08.568Z,102322.31
2019-02-16T15:38:37.767Z,102320.19
2019-02-16T15:41:06.891Z,102323.78
2019-02-16T15:43:36.075Z,102310.21
2019-02-16T15:46:05.323Z,102324.38
2019-02-16T15:48:34.539Z,102320.78
2019-02-16T15:51:03.727Z,102318.78
2019-02-16T15:53:32.918Z,102320.22
2019-02-16T15:56:10.106Z,102317.44
2019-02-16T15:58:33.054Z,102314.23
2019-02-16T16:01:02.225Z,102314.80
2019-02-16T16:03:31.402Z,102313.52
2019-02-16T16:06:00.652Z,102316.59
2019-02-16T16:08:31.500Z,102308.66
2019-02-16T16:11:20.491Z,102308.45
2019-02-16T16:13:57.261Z,102307.63
2019-02-16T16:16:28.099Z,102306.89
2019-02-16T16:18:58.926Z,102310.40
2019-02-16T16:21:32.179Z,102307.72
2019-02-16T16:24:06.165Z,102305.98
2019-02-16T16:26:42.602Z,102298.41
2019-02-16T16:29:13.442Z,102294.89
2019-02-16T16:31:44.262Z,102295.50
2019-02-16T16:34:24.164Z,102288.09
2019-02-16T16:37:07.216Z,102293.41
2019-02-16T16:39:50.266Z,102296.41
2019-02-16T16:42:37.161Z,102301.73
2019-02-16T16:45:14.813Z,102305.33
2019-02-16T16:47:57.985Z,102303.47
2019-02-16T16:50:28.830Z,102299.05
2019-02-16T16:53:16.090Z,102306.67
2019-02-16T16:55:53.120Z,102294.28
2019-02-16T16:58:33.102Z,102297.05
2019-02-16T17:01:15.732Z,102302.51
2019-02-16T17:04:10.347Z,102296.27
2019-02-16T17:06:50.025Z,102296.75
2019-02-16T17:09:24.338Z,102293.28
2019-02-16T17:11:55.181Z,102292.98
2019-02-16T17:14:26.000Z,102292.03
2019-02-16T17:16:56.838Z,102293.89
2019-02-16T17:19:42.832Z,102296.69
2019-02-16T17:22:13.656Z,102294.09
2019-02-16T17:24:44.493Z,102298.12
2019-02-16T17:27:24.159Z,102298.12
2019-02-16T17:30:00.793Z,102303.91
2019-02-16T17:32:31.655Z,102303.91
2019-02-16T17:35:05.151Z,102299.50
2019-02-16T17:37:38.903Z,102298.12
2019-02-16T17:40:26.364Z,102305.42
2019-02-16T17:43:03.117Z,102304.56
2019-02-16T17:45:36.743Z,102312.61
2019-02-16T17:48:16.486Z,102306.77
2019-02-16T17:50:50.365Z,102312.09
2019-02-16T17:53:21.227Z,102322.23
2019-02-16T17:55:52.057Z,102322.23
2019-02-16T17:58:41.178Z,102321.25
2019-02-16T18:01:14.884Z,102325.27
2019-02-16T18:03:45.717Z,102317.96
2019-02-16T18:06:16.562Z,102316.19
2019-02-16T18:08:47.419Z,102317.45
2019-02-16T18:11:18.237Z,102310.00
2019-02-16T18:13:49.063Z,102308.34
2019-02-16T18:16:19.898Z,102311.97
2019-02-16T18:18:50.743Z,102309.64
2019-02-16T18:21:33.530Z,102317.92
2019-02-16T18:24:10.183Z,102317.22
2019-02-16T18:26:57.137Z,102317.05
2019-02-16T18:29:33.591Z,102314.80
2019-02-16T18:32:19.275Z,102315.94
2019-02-16T18:34:52.681Z,102310.73
2019-02-16T18:37:26.282Z,102312.86
2019-02-16T18:40:03.241Z,102306.75
2019-02-16T18:42:39.931Z,102312.85
2019-02-16T18:45:28.995Z,102311.56
2019-02-16T18:48:11.309Z,102301.42
2019-02-16T18:50:58.437Z,102303.11
2019-02-16T18:53:41.080Z,102304.34
2019-02-16T18:56:14.758Z,102312.13
2019-02-16T18:58:45.598Z,102304.54
2019-02-16T19:01:16.432Z,102304.63
2019-02-16T19:03:53.125Z,102297.13
2019-02-16T19:06:35.900Z,102298.09
2019-02-16T19:09:10.810Z,102299.28
2019-02-16T19:11:44.283Z,102295.13
2019-02-16T19:14:20.832Z,102297.25
2019-02-16T19:17:00.498Z,102298.03
2019-02-16T19:19:40.197Z,102291.78
2019-02-16T19:22:17.109Z,102295.92
2019-02-16T19:24:50.533Z,102292.38
2019-02-16T19:27:21.354Z,102292.02
2019-02-16T19:30:01.319Z,102291.47
2019-02-16T19:32:50.259Z,102295.96
2019-02-16T19:35:26.679Z,102299.88
2019-02-16T19:38:06.603Z,102299.88
2019-02-16T19:40:37.450Z,102295.64
2019-02-16T19:43:10.977Z,102296.98
2019-02-16T19:45:41.806Z,102301.22
2019-02-16T19:48:12.650Z,102305.59
2019-02-16T19:50:46.196Z,102307.84
2019-02-16T19:53:22.956Z,102309.42
2019-02-16T19:56:11.870Z,102304.73
2019-02-16T19:58:42.748Z,102302.56
2019-02-16T20:01:31.537Z,102301.14
2019-02-16T20:04:18.263Z,102295.85
2019-02-16T20:06:58.088Z,102296.52
2019-02-16T20:09:28.916Z,102296.59
2019-02-16T20:12:05.687Z,102297.98
2019-02-16T20:14:52.432Z,102295.22
2019-02-16T20:17:26.256Z,102300.94
2019-02-16T20:20:06.257Z,102299.00
2019-02-16T20:22:37.113Z,102298.41
2019-02-16T20:25:10.621Z,102293.95
2019-02-16T20:27:50.176Z,102295.22
2019-02-16T20:30:33.135Z,102294.19
2019-02-16T20:33:05.657Z,102290.64
2019-02-16T20:35:42.315Z,102299.00
2019-02-16T20:38:13.152Z,102284.09
2019-02-16T20:40:43.995Z,102284.09
2019-02-16T20:43:14.888Z,102281.84
2019-02-16T20:45:54.691Z,102281.92
2019-02-16T20:48:25.516Z,102281.65
2019-02-16T20:50:56.335Z,102281.65
2019-02-16T20:53:45.548Z,102286.93
2019-02-16T20:56:32.394Z,102280.84
2019-02-16T20:59:09.098Z,102288.13
2019-02-16T21:01:51.924Z,102288.13
2019-02-16T21:04:26.009Z,102277.52
2019-02-16T21:06:56.841Z,102289.15
2019-02-16T21:09:27.664Z,102287.27
2019-02-16T21:12:01.106Z,102292.00
2019-02-16T21:14:47.027Z,102279.69
2019-02-16T21:17:34.119Z,102283.43
2019-02-16T21:20:21.214Z,102274.73
2019-02-16T21:23:09.995Z,102270.72
2019-02-16T21:25:40.818Z,102270.72
2019-02-16T21:28:11.644Z,102270.16
2019-02-16T21:31:00.380Z,102262.53
2019-02-16T21:33:40.045Z,102262.53
2019-02-16T21:36:10.911Z,102266.23
2019-02-16T21:38:44.357Z,102268.55
2019-02-16T21:41:18.145Z,102263.59
2019-02-16T21:44:06.940Z,102263.59
2019-02-16T21:46:58.724Z,102257.94
2019-02-16T21:49:29.617Z,102262.09
2019-02-16T21:52:00.429Z,102262.09
2019-02-16T21:54:31.302Z,102258.62
2019-02-16T21:57:07.771Z,102249.12
2019-02-16T21:59:54.963Z,102259.87
2019-02-16T22:02:25.810Z,102259.87
2019-02-16T22:05:02.297Z,102254.58
2019-02-16T22:07:35.731Z,102259.02
2019-02-16T22:10:14.336Z,102254.86
2019-02-16T22:13:01.652Z,102254.97
2019-02-16T22:15:30.909Z,102260.75
2019-02-16T22:18:00.115Z,102260.75
2019-02-16T22:20:29.344Z,102263.83
2019-02-16T22:22:58.524Z,102263.83
2019-02-16T22:25:27.732Z,102257.83
2019-02-16T22:27:56.936Z,102257.83
2019-02-16T22:30:26.135Z,102254.24
2019-02-16T22:32:55.364Z,102260.94
2019-02-16T22:35:24.536Z,102254.50
2019-02-16T22:37:53.715Z,102254.06
2019-02-16T22:40:22.928Z,102254.06
2019-02-16T22:42:52.109Z,102249.89
2019-02-16T22:45:21.289Z,102244.62
2019-02-16T22:47:50.502Z,102241.36
2019-02-16T22:50:19.711Z,102241.36
2019-02-16T22:52:48.892Z,102244.86
2019-02-16T22:55:18.094Z,102241.08
2019-02-16T22:57:47.359Z,102241.08
2019-02-16T23:00:38.242Z,102240.11
2019-02-16T23:03:07.920Z,102239.41
2019-02-16T23:05:37.163Z,102239.41
2019-02-16T23:08:06.452Z,102237.16
2019-02-16T23:10:35.630Z,102237.33
2019-02-16T23:13:04.889Z,102230.74
2019-02-16T23:15:34.094Z,102230.74
2019-02-16T23:18:03.313Z,102232.41
2019-02-16T23:20:32.576Z,102232.41
2019-02-16T23:23:01.945Z,102224.58
2019-02-16T23:25:31.146Z,102224.58
2019-02-16T23:28:00.405Z,102221.47
2019-02-16T23:30:29.596Z,102224.65
2019-02-16T23:33:07.633Z,102223.64
2019-02-16T23:35:36.814Z,102223.64
2019-02-16T23:38:06.070Z,102228.23
2019-02-16T23:40:35.283Z,102212.09
2019-02-16T23:43:04.536Z,102213.26
2019-02-16T23:45:33.728Z,102207.33
2019-02-16T23:48:02.948Z,102207.33
2019-02-16T23:50:32.126Z,102193.32
2019-02-16T23:53:01.306Z,102193.32
2019-02-16T23:55:30.520Z,102211.52
2019-02-16T23:57:59.714Z,102211.52
